sensor_id;sensor_type;location;lat;lon;timestamp;temperature;humidity
71801;HTU21D;59647;55.838;37.292;2023-09-19T00:02:17;11.07;89.99
71801;HTU21D;59647;55.838;37.292;2023-09-19T00:04:43;11.08;90.06
71801;HTU21D;59647;55.838;37.292;2023-09-19T00:07:09;11.11;89.97
71801;HTU21D;59647;55.838;37.292;2023-09-19T00:09:35;11.15;90.05
71801;HTU21D;59647;55.838;37.292;2023-09-19T00:12:05;11.24;90.18
71801;HTU21D;59647;55.838;37.292;2023-09-19T00:14:32;11.28;90.20
71801;HTU21D;59647;55.838;37.292;2023-09-19T00:17:02;11.31;90.17
71801;HTU21D;59647;55.838;37.292;2023-09-19T00:19:35;11.38;90.44
71801;HTU21D;59647;55.838;37.292;2023-09-19T00:22:01;11.42;90.22
71801;HTU21D;59647;55.838;37.292;2023-09-19T00:24:27;11.47;90.10
71801;HTU21D;59647;55.838;37.292;2023-09-19T00:26:56;11.53;90.08
71801;HTU21D;59647;55.838;37.292;2023-09-19T00:29:25;11.70;89.98
71801;HTU21D;59647;55.838;37.292;2023-09-19T00:31:55;11.78;89.89
71801;HTU21D;59647;55.838;37.292;2023-09-19T00:34:23;11.82;89.67
71801;HTU21D;59647;55.838;37.292;2023-09-19T00:36:51;11.91;89.52
71801;HTU21D;59647;55.838;37.292;2023-09-19T00:39:20;12.00;89.05
71801;HTU21D;59647;55.838;37.292;2023-09-19T00:41:46;12.08;89.27
71801;HTU21D;59647;55.838;37.292;2023-09-19T00:44:12;12.20;89.02
71801;HTU21D;59647;55.838;37.292;2023-09-19T00:46:37;12.26;88.12
71801;HTU21D;59647;55.838;37.292;2023-09-19T00:49:03;12.33;88.72
71801;HTU21D;59647;55.838;37.292;2023-09-19T00:51:29;12.38;88.43
71801;HTU21D;59647;55.838;37.292;2023-09-19T00:53:55;12.45;88.79
71801;HTU21D;59647;55.838;37.292;2023-09-19T00:56:22;12.46;89.15
71801;HTU21D;59647;55.838;37.292;2023-09-19T00:58:48;12.55;88.19
71801;HTU21D;59647;55.838;37.292;2023-09-19T01:01:14;12.63;88.25
71801;HTU21D;59647;55.838;37.292;2023-09-19T01:03:41;12.65;88.27
71801;HTU21D;59647;55.838;37.292;2023-09-19T01:06:07;12.69;88.52
71801;HTU21D;59647;55.838;37.292;2023-09-19T01:08:38;12.72;88.30
71801;HTU21D;59647;55.838;37.292;2023-09-19T01:13:55;12.75;89.12
71801;HTU21D;59647;55.838;37.292;2023-09-19T01:16:32;12.77;88.74
71801;HTU21D;59647;55.838;37.292;2023-09-19T01:29:49;12.78;88.18
71801;HTU21D;59647;55.838;37.292;2023-09-19T01:32:20;12.81;88.44
71801;HTU21D;59647;55.838;37.292;2023-09-19T01:34:54;12.84;88.55
71801;HTU21D;59647;55.838;37.292;2023-09-19T01:37:24;12.84;88.73
71801;HTU21D;59647;55.838;37.292;2023-09-19T01:40:07;12.85;89.31
71801;HTU21D;59647;55.838;37.292;2023-09-19T01:42:43;12.89;89.40
71801;HTU21D;59647;55.838;37.292;2023-09-19T01:45:17;12.92;87.87
71801;HTU21D;59647;55.838;37.292;2023-09-19T01:47:51;12.97;88.36
71801;HTU21D;59647;55.838;37.292;2023-09-19T01:50:44;12.97;88.47
71801;HTU21D;59647;55.838;37.292;2023-09-19T01:53:25;13.01;88.14
71801;HTU21D;59647;55.838;37.292;2023-09-19T01:55:54;13.00;87.73
71801;HTU21D;59647;55.838;37.292;2023-09-19T01:58:29;13.00;87.71
71801;HTU21D;59647;55.838;37.292;2023-09-19T02:01:00;12.99;87.84
71801;HTU21D;59647;55.838;37.292;2023-09-19T02:03:27;12.95;87.68
71801;HTU21D;59647;55.838;37.292;2023-09-19T02:05:54;12.94;87.77
71801;HTU21D;59647;55.838;37.292;2023-09-19T02:08:22;12.93;88.06
71801;HTU21D;59647;55.838;37.292;2023-09-19T02:10:51;12.91;87.66
71801;HTU21D;59647;55.838;37.292;2023-09-19T02:13:21;12.92;87.82
71801;HTU21D;59647;55.838;37.292;2023-09-19T02:15:47;12.90;88.22
71801;HTU21D;59647;55.838;37.292;2023-09-19T02:18:14;12.89;87.73
71801;HTU21D;59647;55.838;37.292;2023-09-19T02:20:42;12.89;88.22
71801;HTU21D;59647;55.838;37.292;2023-09-19T02:23:09;12.90;88.28
71801;HTU21D;59647;55.838;37.292;2023-09-19T02:25:35;12.94;88.60
71801;HTU21D;59647;55.838;37.292;2023-09-19T02:28:01;12.93;88.49
71801;HTU21D;59647;55.838;37.292;2023-09-19T02:30:29;12.92;88.30
71801;HTU21D;59647;55.838;37.292;2023-09-19T02:32:56;12.90;88.26
71801;HTU21D;59647;55.838;37.292;2023-09-19T02:35:22;12.93;88.05
71801;HTU21D;59647;55.838;37.292;2023-09-19T02:37:48;12.92;88.20
71801;HTU21D;59647;55.838;37.292;2023-09-19T02:40:15;12.94;87.94
71801;HTU21D;59647;55.838;37.292;2023-09-19T02:42:49;12.96;88.11
71801;HTU21D;59647;55.838;37.292;2023-09-19T02:45:19;12.96;88.05
71801;HTU21D;59647;55.838;37.292;2023-09-19T02:47:46;12.94;88.59
71801;HTU21D;59647;55.838;37.292;2023-09-19T02:50:14;12.96;88.36
71801;HTU21D;59647;55.838;37.292;2023-09-19T02:52:43;12.99;88.62
71801;HTU21D;59647;55.838;37.292;2023-09-19T02:55:11;13.00;88.75
71801;HTU21D;59647;55.838;37.292;2023-09-19T02:57:40;13.02;88.48
71801;HTU21D;59647;55.838;37.292;2023-09-19T03:00:09;13.04;88.78
71801;HTU21D;59647;55.838;37.292;2023-09-19T03:02:37;13.07;88.45
71801;HTU21D;59647;55.838;37.292;2023-09-19T03:05:05;13.12;88.00
71801;HTU21D;59647;55.838;37.292;2023-09-19T03:07:31;13.16;87.59
71801;HTU21D;59647;55.838;37.292;2023-09-19T03:09:57;13.17;87.99
71801;HTU21D;59647;55.838;37.292;2023-09-19T03:12:24;13.16;88.02
71801;HTU21D;59647;55.838;37.292;2023-09-19T03:14:50;13.16;87.96
71801;HTU21D;59647;55.838;37.292;2023-09-19T03:17:17;13.18;87.99
71801;HTU21D;59647;55.838;37.292;2023-09-19T03:19:46;13.18;88.06
71801;HTU21D;59647;55.838;37.292;2023-09-19T03:22:14;13.20;88.09
71801;HTU21D;59647;55.838;37.292;2023-09-19T03:24:41;13.24;87.11
71801;HTU21D;59647;55.838;37.292;2023-09-19T03:27:09;13.26;87.71
71801;HTU21D;59647;55.838;37.292;2023-09-19T03:29:37;13.26;87.75
71801;HTU21D;59647;55.838;37.292;2023-09-19T03:32:05;13.27;87.50
71801;HTU21D;59647;55.838;37.292;2023-09-19T03:34:32;13.31;87.38
71801;HTU21D;59647;55.838;37.292;2023-09-19T03:36:59;13.33;87.46
71801;HTU21D;59647;55.838;37.292;2023-09-19T03:39:26;13.34;87.44
71801;HTU21D;59647;55.838;37.292;2023-09-19T03:41:52;13.37;87.46
71801;HTU21D;59647;55.838;37.292;2023-09-19T03:44:19;13.39;87.38
71801;HTU21D;59647;55.838;37.292;2023-09-19T03:46:45;13.41;87.22
71801;HTU21D;59647;55.838;37.292;2023-09-19T03:49:12;13.44;87.12
71801;HTU21D;59647;55.838;37.292;2023-09-19T03:51:39;13.46;87.05
71801;HTU21D;59647;55.838;37.292;2023-09-19T03:54:07;13.48;87.13
71801;HTU21D;59647;55.838;37.292;2023-09-19T03:56:33;13.53;87.03
71801;HTU21D;59647;55.838;37.292;2023-09-19T03:59:00;13.56;86.84
71801;HTU21D;59647;55.838;37.292;2023-09-19T04:01:27;13.58;87.17
71801;HTU21D;59647;55.838;37.292;2023-09-19T04:03:54;13.58;87.09
71801;HTU21D;59647;55.838;37.292;2023-09-19T04:06:20;13.59;87.21
71801;HTU21D;59647;55.838;37.292;2023-09-19T04:08:46;13.61;87.26
71801;HTU21D;59647;55.838;37.292;2023-09-19T04:11:13;13.63;87.38
71801;HTU21D;59647;55.838;37.292;2023-09-19T04:13:40;13.64;87.28
71801;HTU21D;59647;55.838;37.292;2023-09-19T04:16:06;13.64;87.21
71801;HTU21D;59647;55.838;37.292;2023-09-19T04:18:36;13.68;87.22
71801;HTU21D;59647;55.838;37.292;2023-09-19T04:21:05;13.69;87.19
71801;HTU21D;59647;55.838;37.292;2023-09-19T04:23:32;13.74;87.34
71801;HTU21D;59647;55.838;37.292;2023-09-19T04:25:58;13.75;87.54
71801;HTU21D;59647;55.838;37.292;2023-09-19T04:28:25;13.77;87.26
71801;HTU21D;59647;55.838;37.292;2023-09-19T04:30:54;13.83;87.08
71801;HTU21D;59647;55.838;37.292;2023-09-19T04:33:26;13.84;87.20
71801;HTU21D;59647;55.838;37.292;2023-09-19T04:35:53;13.88;87.28
71801;HTU21D;59647;55.838;37.292;2023-09-19T04:38:20;13.93;87.19
71801;HTU21D;59647;55.838;37.292;2023-09-19T04:40:47;13.94;87.56
71801;HTU21D;59647;55.838;37.292;2023-09-19T04:43:13;13.95;87.57
71801;HTU21D;59647;55.838;37.292;2023-09-19T04:45:42;13.94;89.86
71801;HTU21D;59647;55.838;37.292;2023-09-19T04:48:08;13.96;88.58
71801;HTU21D;59647;55.838;37.292;2023-09-19T04:50:35;14.01;87.89
71801;HTU21D;59647;55.838;37.292;2023-09-19T04:53:01;14.06;88.02
71801;HTU21D;59647;55.838;37.292;2023-09-19T04:55:27;14.08;88.16
71801;HTU21D;59647;55.838;37.292;2023-09-19T04:57:53;14.08;88.04
71801;HTU21D;59647;55.838;37.292;2023-09-19T05:00:22;14.05;89.95
71801;HTU21D;59647;55.838;37.292;2023-09-19T05:02:57;14.05;89.12
71801;HTU21D;59647;55.838;37.292;2023-09-19T05:05:23;14.04;89.50
71801;HTU21D;59647;55.838;37.292;2023-09-19T05:07:52;14.05;90.48
71801;HTU21D;59647;55.838;37.292;2023-09-19T05:10:20;14.04;91.31
71801;HTU21D;59647;55.838;37.292;2023-09-19T05:12:46;14.09;91.24
71801;HTU21D;59647;55.838;37.292;2023-09-19T05:15:14;14.15;91.47
71801;HTU21D;59647;55.838;37.292;2023-09-19T05:17:51;14.21;90.54
71801;HTU21D;59647;55.838;37.292;2023-09-19T05:20:18;14.26;90.71
71801;HTU21D;59647;55.838;37.292;2023-09-19T05:23:02;14.41;89.49
71801;HTU21D;59647;55.838;37.292;2023-09-19T05:25:31;14.51;90.15
71801;HTU21D;59647;55.838;37.292;2023-09-19T05:27:58;14.59;90.37
71801;HTU21D;59647;55.838;37.292;2023-09-19T05:30:29;14.74;89.60
71801;HTU21D;59647;55.838;37.292;2023-09-19T05:32:55;14.86;88.99
71801;HTU21D;59647;55.838;37.292;2023-09-19T05:35:22;14.98;89.13
71801;HTU21D;59647;55.838;37.292;2023-09-19T05:37:54;15.12;88.47
71801;HTU21D;59647;55.838;37.292;2023-09-19T05:40:21;15.25;88.07
71801;HTU21D;59647;55.838;37.292;2023-09-19T05:42:47;15.38;87.68
71801;HTU21D;59647;55.838;37.292;2023-09-19T05:45:14;15.48;87.37
71801;HTU21D;59647;55.838;37.292;2023-09-19T05:47:45;15.58;86.99
71801;HTU21D;59647;55.838;37.292;2023-09-19T05:50:11;15.58;86.61
71801;HTU21D;59647;55.838;37.292;2023-09-19T05:52:39;15.56;86.61
71801;HTU21D;59647;55.838;37.292;2023-09-19T05:55:05;15.59;86.62
71801;HTU21D;59647;55.838;37.292;2023-09-19T05:57:35;15.78;86.55
71801;HTU21D;59647;55.838;37.292;2023-09-19T06:00:04;16.00;86.09
71801;HTU21D;59647;55.838;37.292;2023-09-19T06:02:38;16.20;85.51
71801;HTU21D;59647;55.838;37.292;2023-09-19T06:05:06;16.33;85.03
71801;HTU21D;59647;55.838;37.292;2023-09-19T06:07:37;16.40;84.32
71801;HTU21D;59647;55.838;37.292;2023-09-19T06:10:04;16.47;84.27
71801;HTU21D;59647;55.838;37.292;2023-09-19T06:12:44;16.58;84.33
71801;HTU21D;59647;55.838;37.292;2023-09-19T06:15:12;16.73;84.02
71801;HTU21D;59647;55.838;37.292;2023-09-19T06:17:51;16.91;82.62
71801;HTU21D;59647;55.838;37.292;2023-09-19T06:20:21;17.07;83.16
71801;HTU21D;59647;55.838;37.292;2023-09-19T06:22:49;17.21;83.05
71801;HTU21D;59647;55.838;37.292;2023-09-19T06:25:16;17.22;81.80
71801;HTU21D;59647;55.838;37.292;2023-09-19T06:27:49;17.23;81.72
71801;HTU21D;59647;55.838;37.292;2023-09-19T06:30:20;17.28;81.92
71801;HTU21D;59647;55.838;37.292;2023-09-19T06:32:47;17.34;81.39
71801;HTU21D;59647;55.838;37.292;2023-09-19T06:35:15;17.44;81.28
71801;HTU21D;59647;55.838;37.292;2023-09-19T06:37:42;17.48;80.69
71801;HTU21D;59647;55.838;37.292;2023-09-19T06:40:11;17.49;80.92
71801;HTU21D;59647;55.838;37.292;2023-09-19T06:42:45;17.54;81.09
71801;HTU21D;59647;55.838;37.292;2023-09-19T06:45:13;17.66;80.78
71801;HTU21D;59647;55.838;37.292;2023-09-19T06:47:44;17.73;80.56
71801;HTU21D;59647;55.838;37.292;2023-09-19T06:50:11;17.80;79.43
71801;HTU21D;59647;55.838;37.292;2023-09-19T06:52:40;17.93;80.17
71801;HTU21D;59647;55.838;37.292;2023-09-19T06:55:07;18.08;80.52
71801;HTU21D;59647;55.838;37.292;2023-09-19T06:57:35;18.18;80.43
71801;HTU21D;59647;55.838;37.292;2023-09-19T07:00:02;18.24;79.88
71801;HTU21D;59647;55.838;37.292;2023-09-19T07:02:35;18.35;79.27
71801;HTU21D;59647;55.838;37.292;2023-09-19T07:05:01;18.42;79.35
71801;HTU21D;59647;55.838;37.292;2023-09-19T07:07:29;18.56;79.18
71801;HTU21D;59647;55.838;37.292;2023-09-19T07:09:56;18.67;78.98
71801;HTU21D;59647;55.838;37.292;2023-09-19T07:12:22;18.63;77.90
71801;HTU21D;59647;55.838;37.292;2023-09-19T07:14:48;18.50;76.28
71801;HTU21D;59647;55.838;37.292;2023-09-19T07:17:16;18.59;76.87
71801;HTU21D;59647;55.838;37.292;2023-09-19T07:19:44;18.80;77.68
71801;HTU21D;59647;55.838;37.292;2023-09-19T07:22:11;19.09;77.07
71801;HTU21D;59647;55.838;37.292;2023-09-19T07:24:37;19.26;75.51
71801;HTU21D;59647;55.838;37.292;2023-09-19T07:27:04;19.37;74.84
71801;HTU21D;59647;55.838;37.292;2023-09-19T07:29:31;19.44;75.27
71801;HTU21D;59647;55.838;37.292;2023-09-19T07:31:57;19.53;75.65
71801;HTU21D;59647;55.838;37.292;2023-09-19T07:34:23;19.59;72.51
71801;HTU21D;59647;55.838;37.292;2023-09-19T07:36:50;19.71;75.68
71801;HTU21D;59647;55.838;37.292;2023-09-19T07:39:17;19.87;75.32
71801;HTU21D;59647;55.838;37.292;2023-09-19T07:41:44;20.15;75.98
71801;HTU21D;59647;55.838;37.292;2023-09-19T07:44:11;20.39;74.27
71801;HTU21D;59647;55.838;37.292;2023-09-19T07:46:39;20.41;74.83
71801;HTU21D;59647;55.838;37.292;2023-09-19T07:49:09;20.42;74.43
71801;HTU21D;59647;55.838;37.292;2023-09-19T07:51:37;20.39;73.07
71801;HTU21D;59647;55.838;37.292;2023-09-19T07:54:04;20.31;71.00
71801;HTU21D;59647;55.838;37.292;2023-09-19T07:56:30;20.17;71.81
71801;HTU21D;59647;55.838;37.292;2023-09-19T07:58:59;20.03;73.79
71801;HTU21D;59647;55.838;37.292;2023-09-19T08:01:29;19.96;74.33
71801;HTU21D;59647;55.838;37.292;2023-09-19T08:03:56;19.88;74.46
71801;HTU21D;59647;55.838;37.292;2023-09-19T08:06:25;19.81;73.50
71801;HTU21D;59647;55.838;37.292;2023-09-19T08:08:55;19.73;74.43
71801;HTU21D;59647;55.838;37.292;2023-09-19T08:11:23;19.67;74.24
71801;HTU21D;59647;55.838;37.292;2023-09-19T08:13:51;19.62;73.93
71801;HTU21D;59647;55.838;37.292;2023-09-19T08:16:17;19.58;74.19
71801;HTU21D;59647;55.838;37.292;2023-09-19T08:18:49;19.54;74.99
71801;HTU21D;59647;55.838;37.292;2023-09-19T08:21:19;19.46;74.88
71801;HTU21D;59647;55.838;37.292;2023-09-19T08:23:46;19.41;73.88
71801;HTU21D;59647;55.838;37.292;2023-09-19T08:26:12;19.38;74.81
71801;HTU21D;59647;55.838;37.292;2023-09-19T08:28:40;19.33;74.62
71801;HTU21D;59647;55.838;37.292;2023-09-19T08:31:07;19.36;74.66
71801;HTU21D;59647;55.838;37.292;2023-09-19T08:33:35;19.39;75.24
71801;HTU21D;59647;55.838;37.292;2023-09-19T08:36:03;19.37;74.64
71801;HTU21D;59647;55.838;37.292;2023-09-19T08:38:34;19.45;74.73
71801;HTU21D;59647;55.838;37.292;2023-09-19T08:41:05;19.51;73.68
71801;HTU21D;59647;55.838;37.292;2023-09-19T08:43:31;19.55;72.86
71801;HTU21D;59647;55.838;37.292;2023-09-19T08:46:11;19.52;73.24
71801;HTU21D;59647;55.838;37.292;2023-09-19T08:49:33;19.60;73.28
71801;HTU21D;59647;55.838;37.292;2023-09-19T08:52:42;19.77;72.70
71801;HTU21D;59647;55.838;37.292;2023-09-19T08:55:12;19.84;73.66
71801;HTU21D;59647;55.838;37.292;2023-09-19T08:57:41;19.91;73.54
71801;HTU21D;59647;55.838;37.292;2023-09-19T09:00:11;19.99;73.31
71801;HTU21D;59647;55.838;37.292;2023-09-19T09:02:42;20.07;73.19
71801;HTU21D;59647;55.838;37.292;2023-09-19T09:05:09;20.19;72.88
71801;HTU21D;59647;55.838;37.292;2023-09-19T09:07:43;20.27;70.55
71801;HTU21D;59647;55.838;37.292;2023-09-19T09:10:10;20.32;71.55
71801;HTU21D;59647;55.838;37.292;2023-09-19T09:12:37;20.43;72.66
71801;HTU21D;59647;55.838;37.292;2023-09-19T09:15:07;20.51;72.21
71801;HTU21D;59647;55.838;37.292;2023-09-19T09:17:35;20.60;72.36
71801;HTU21D;59647;55.838;37.292;2023-09-19T09:20:02;20.75;72.43
71801;HTU21D;59647;55.838;37.292;2023-09-19T09:22:30;20.85;71.16
71801;HTU21D;59647;55.838;37.292;2023-09-19T09:24:58;21.04;70.39
71801;HTU21D;59647;55.838;37.292;2023-09-19T09:27:24;21.36;71.21
71801;HTU21D;59647;55.838;37.292;2023-09-19T09:29:51;21.72;71.28
71801;HTU21D;59647;55.838;37.292;2023-09-19T09:32:26;21.85;68.03
71801;HTU21D;59647;55.838;37.292;2023-09-19T09:37:21;22.16;68.23
71801;HTU21D;59647;55.838;37.292;2023-09-19T09:40:00;22.40;68.36
71801;HTU21D;59647;55.838;37.292;2023-09-19T09:42:45;22.55;67.23
71801;HTU21D;59647;55.838;37.292;2023-09-19T09:45:24;22.70;67.98
71801;HTU21D;59647;55.838;37.292;2023-09-19T09:48:01;22.78;66.88
71801;HTU21D;59647;55.838;37.292;2023-09-19T09:50:48;23.05;66.56
71801;HTU21D;59647;55.838;37.292;2023-09-19T09:53:27;23.28;61.05
71801;HTU21D;59647;55.838;37.292;2023-09-19T09:56:08;23.41;61.35
71801;HTU21D;59647;55.838;37.292;2023-09-19T09:58:36;23.42;63.37
71801;HTU21D;59647;55.838;37.292;2023-09-19T10:01:04;23.46;64.49
71801;HTU21D;59647;55.838;37.292;2023-09-19T10:03:43;23.53;63.98
71801;HTU21D;59647;55.838;37.292;2023-09-19T10:06:14;23.54;61.75
71801;HTU21D;59647;55.838;37.292;2023-09-19T10:09:00;23.47;58.79
71801;HTU21D;59647;55.838;37.292;2023-09-19T10:11:47;23.40;63.99
71801;HTU21D;59647;55.838;37.292;2023-09-19T10:14:27;23.42;60.91
71801;HTU21D;59647;55.838;37.292;2023-09-19T10:16:58;23.37;59.67
71801;HTU21D;59647;55.838;37.292;2023-09-19T10:19:36;23.31;61.92
71801;HTU21D;59647;55.838;37.292;2023-09-19T10:22:04;23.31;61.31
71801;HTU21D;59647;55.838;37.292;2023-09-19T10:24:33;23.27;62.92
71801;HTU21D;59647;55.838;37.292;2023-09-19T10:27:03;23.29;63.20
71801;HTU21D;59647;55.838;37.292;2023-09-19T10:29:32;23.29;64.60
71801;HTU21D;59647;55.838;37.292;2023-09-19T10:32:03;23.30;64.65
71801;HTU21D;59647;55.838;37.292;2023-09-19T10:34:35;23.20;62.28
71801;HTU21D;59647;55.838;37.292;2023-09-19T10:37:03;23.34;63.85
71801;HTU21D;59647;55.838;37.292;2023-09-19T10:39:32;23.46;62.97
71801;HTU21D;59647;55.838;37.292;2023-09-19T10:42:02;23.51;60.57
71801;HTU21D;59647;55.838;37.292;2023-09-19T10:44:32;23.57;63.19
71801;HTU21D;59647;55.838;37.292;2023-09-19T10:46:58;23.67;64.37
71801;HTU21D;59647;55.838;37.292;2023-09-19T10:49:25;23.79;60.93
71801;HTU21D;59647;55.838;37.292;2023-09-19T10:51:54;23.83;63.17
71801;HTU21D;59647;55.838;37.292;2023-09-19T10:54:27;23.89;62.42
71801;HTU21D;59647;55.838;37.292;2023-09-19T10:56:53;23.98;63.16
71801;HTU21D;59647;55.838;37.292;2023-09-19T10:59:21;23.97;58.42
71801;HTU21D;59647;55.838;37.292;2023-09-19T11:01:51;23.92;62.41
71801;HTU21D;59647;55.838;37.292;2023-09-19T11:04:22;23.99;62.50
71801;HTU21D;59647;55.838;37.292;2023-09-19T11:07:09;24.12;60.73
71801;HTU21D;59647;55.838;37.292;2023-09-19T11:09:55;24.13;61.28
71801;HTU21D;59647;55.838;37.292;2023-09-19T11:15:08;24.19;60.63
71801;HTU21D;59647;55.838;37.292;2023-09-19T11:30:33;24.51;61.88
71801;HTU21D;59647;55.838;37.292;2023-09-19T11:36:08;24.54;59.67
71801;HTU21D;59647;55.838;37.292;2023-09-19T11:43:49;24.86;62.02
71801;HTU21D;59647;55.838;37.292;2023-09-19T11:46:21;24.88;60.44
71801;HTU21D;59647;55.838;37.292;2023-09-19T11:48:49;24.77;61.09
71801;HTU21D;59647;55.838;37.292;2023-09-19T11:51:20;24.76;61.12
71801;HTU21D;59647;55.838;37.292;2023-09-19T11:53:57;24.83;60.35
71801;HTU21D;59647;55.838;37.292;2023-09-19T11:56:26;24.86;61.58
71801;HTU21D;59647;55.838;37.292;2023-09-19T11:58:57;24.89;61.47
71801;HTU21D;59647;55.838;37.292;2023-09-19T12:01:31;24.95;58.96
71801;HTU21D;59647;55.838;37.292;2023-09-19T12:03:59;24.99;60.41
71801;HTU21D;59647;55.838;37.292;2023-09-19T12:06:27;25.09;58.87
71801;HTU21D;59647;55.838;37.292;2023-09-19T12:08:55;25.07;59.64
71801;HTU21D;59647;55.838;37.292;2023-09-19T12:11:30;25.14;60.18
71801;HTU21D;59647;55.838;37.292;2023-09-19T12:13:59;25.22;60.60
71801;HTU21D;59647;55.838;37.292;2023-09-19T12:16:29;25.28;58.49
71801;HTU21D;59647;55.838;37.292;2023-09-19T12:18:57;25.27;58.63
71801;HTU21D;59647;55.838;37.292;2023-09-19T12:21:29;25.31;59.22
71801;HTU21D;59647;55.838;37.292;2023-09-19T12:24:11;25.44;56.53
71801;HTU21D;59647;55.838;37.292;2023-09-19T12:26:44;25.52;59.15
71801;HTU21D;59647;55.838;37.292;2023-09-19T12:29:15;25.57;56.71
71801;HTU21D;59647;55.838;37.292;2023-09-19T12:31:54;25.49;58.16
71801;HTU21D;59647;55.838;37.292;2023-09-19T12:34:25;25.57;59.06
71801;HTU21D;59647;55.838;37.292;2023-09-19T12:37:11;25.60;57.27
71801;HTU21D;59647;55.838;37.292;2023-09-19T12:39:39;25.66;59.18
71801;HTU21D;59647;55.838;37.292;2023-09-19T12:42:09;25.67;57.74
71801;HTU21D;59647;55.838;37.292;2023-09-19T12:44:41;25.77;55.78
71801;HTU21D;59647;55.838;37.292;2023-09-19T12:47:10;25.87;58.23
71801;HTU21D;59647;55.838;37.292;2023-09-19T12:50:06;26.02;56.45
71801;HTU21D;59647;55.838;37.292;2023-09-19T12:52:37;26.03;57.63
71801;HTU21D;59647;55.838;37.292;2023-09-19T12:55:06;26.07;57.21
71801;HTU21D;59647;55.838;37.292;2023-09-19T12:57:34;26.03;57.71
71801;HTU21D;59647;55.838;37.292;2023-09-19T13:00:03;26.02;57.22
71801;HTU21D;59647;55.838;37.292;2023-09-19T13:02:32;25.99;58.40
71801;HTU21D;59647;55.838;37.292;2023-09-19T13:04:59;26.02;58.56
71801;HTU21D;59647;55.838;37.292;2023-09-19T13:07:43;26.15;56.30
71801;HTU21D;59647;55.838;37.292;2023-09-19T13:10:09;26.31;57.19
71801;HTU21D;59647;55.838;37.292;2023-09-19T13:12:37;26.38;56.98
71801;HTU21D;59647;55.838;37.292;2023-09-19T13:15:11;26.43;55.16
71801;HTU21D;59647;55.838;37.292;2023-09-19T13:17:44;26.55;56.36
71801;HTU21D;59647;55.838;37.292;2023-09-19T13:20:21;26.66;55.77
71801;HTU21D;59647;55.838;37.292;2023-09-19T13:22:54;26.73;57.26
71801;HTU21D;59647;55.838;37.292;2023-09-19T13:25:26;26.81;57.21
71801;HTU21D;59647;55.838;37.292;2023-09-19T13:27:57;26.93;56.43
71801;HTU21D;59647;55.838;37.292;2023-09-19T13:30:27;27.05;56.50
71801;HTU21D;59647;55.838;37.292;2023-09-19T13:33:09;27.25;54.91
71801;HTU21D;59647;55.838;37.292;2023-09-19T13:35:36;27.37;56.37
71801;HTU21D;59647;55.838;37.292;2023-09-19T13:38:09;27.47;56.21
71801;HTU21D;59647;55.838;37.292;2023-09-19T13:40:40;27.54;54.79
71801;HTU21D;59647;55.838;37.292;2023-09-19T13:43:10;27.46;54.65
71801;HTU21D;59647;55.838;37.292;2023-09-19T13:45:37;27.31;55.26
71801;HTU21D;59647;55.838;37.292;2023-09-19T13:48:04;27.17;54.18
71801;HTU21D;59647;55.838;37.292;2023-09-19T13:50:32;27.05;54.20
71801;HTU21D;59647;55.838;37.292;2023-09-19T13:53:00;27.00;54.30
71801;HTU21D;59647;55.838;37.292;2023-09-19T13:55:26;27.02;54.30
71801;HTU21D;59647;55.838;37.292;2023-09-19T13:57:54;27.06;53.98
71801;HTU21D;59647;55.838;37.292;2023-09-19T14:00:22;27.06;53.59
71801;HTU21D;59647;55.838;37.292;2023-09-19T14:02:49;26.93;52.78
71801;HTU21D;59647;55.838;37.292;2023-09-19T14:05:18;26.82;52.85
71801;HTU21D;59647;55.838;37.292;2023-09-19T14:07:45;26.69;52.71
71801;HTU21D;59647;55.838;37.292;2023-09-19T14:10:13;26.67;52.62
71801;HTU21D;59647;55.838;37.292;2023-09-19T14:12:40;26.65;52.94
71801;HTU21D;59647;55.838;37.292;2023-09-19T14:15:09;26.64;52.06
71801;HTU21D;59647;55.838;37.292;2023-09-19T14:17:37;26.60;52.82
71801;HTU21D;59647;55.838;37.292;2023-09-19T14:20:04;26.57;52.42
71801;HTU21D;59647;55.838;37.292;2023-09-19T14:22:32;26.55;52.75
71801;HTU21D;59647;55.838;37.292;2023-09-19T14:25:00;26.49;52.19
71801;HTU21D;59647;55.838;37.292;2023-09-19T14:27:26;26.41;51.92
71801;HTU21D;59647;55.838;37.292;2023-09-19T14:29:54;26.35;51.95
71801;HTU21D;59647;55.838;37.292;2023-09-19T14:32:21;26.31;52.73
71801;HTU21D;59647;55.838;37.292;2023-09-19T14:34:49;26.24;52.78
71801;HTU21D;59647;55.838;37.292;2023-09-19T14:37:19;26.20;52.76
71801;HTU21D;59647;55.838;37.292;2023-09-19T14:39:49;26.12;52.59
71801;HTU21D;59647;55.838;37.292;2023-09-19T14:42:15;25.94;53.15
71801;HTU21D;59647;55.838;37.292;2023-09-19T14:44:43;25.79;53.31
71801;HTU21D;59647;55.838;37.292;2023-09-19T14:47:11;25.65;53.64
71801;HTU21D;59647;55.838;37.292;2023-09-19T14:49:39;25.54;53.81
71801;HTU21D;59647;55.838;37.292;2023-09-19T14:52:11;25.48;53.33
71801;HTU21D;59647;55.838;37.292;2023-09-19T14:54:38;25.45;54.01
71801;HTU21D;59647;55.838;37.292;2023-09-19T14:57:07;25.42;54.13
71801;HTU21D;59647;55.838;37.292;2023-09-19T14:59:35;25.36;54.17
71801;HTU21D;59647;55.838;37.292;2023-09-19T15:02:06;25.30;54.14
71801;HTU21D;59647;55.838;37.292;2023-09-19T15:04:33;25.20;54.20
71801;HTU21D;59647;55.838;37.292;2023-09-19T15:06:59;25.15;54.44
71801;HTU21D;59647;55.838;37.292;2023-09-19T15:09:25;25.01;54.50
71801;HTU21D;59647;55.838;37.292;2023-09-19T15:11:53;24.87;54.50
71801;HTU21D;59647;55.838;37.292;2023-09-19T15:14:19;24.71;54.79
71801;HTU21D;59647;55.838;37.292;2023-09-19T15:16:47;24.56;55.04
71801;HTU21D;59647;55.838;37.292;2023-09-19T15:19:14;24.41;55.02
71801;HTU21D;59647;55.838;37.292;2023-09-19T15:21:42;24.28;55.31
71801;HTU21D;59647;55.838;37.292;2023-09-19T15:24:10;24.12;55.67
71801;HTU21D;59647;55.838;37.292;2023-09-19T15:26:37;23.99;55.84
71801;HTU21D;59647;55.838;37.292;2023-09-19T15:29:06;23.86;56.17
71801;HTU21D;59647;55.838;37.292;2023-09-19T15:31:33;23.74;56.34
71801;HTU21D;59647;55.838;37.292;2023-09-19T15:34:00;23.64;56.51
71801;HTU21D;59647;55.838;37.292;2023-09-19T15:36:26;23.53;56.63
71801;HTU21D;59647;55.838;37.292;2023-09-19T15:39:03;23.45;56.32
71801;HTU21D;59647;55.838;37.292;2023-09-19T15:41:33;23.32;56.79
71801;HTU21D;59647;55.838;37.292;2023-09-19T15:44:01;23.21;57.02
71801;HTU21D;59647;55.838;37.292;2023-09-19T15:46:33;23.09;57.11
71801;HTU21D;59647;55.838;37.292;2023-09-19T15:49:00;22.98;57.40
71801;HTU21D;59647;55.838;37.292;2023-09-19T15:51:27;22.90;57.55
71801;HTU21D;59647;55.838;37.292;2023-09-19T15:53:59;22.82;57.50
71801;HTU21D;59647;55.838;37.292;2023-09-19T15:56:37;22.70;57.80
71801;HTU21D;59647;55.838;37.292;2023-09-19T15:59:04;22.60;57.96